Time,TemperatureF,DewpointF,PressureIn,WindDirection,WindDirectionDegrees,WindSpeedMPH,WindSpeedGustMPH,Humidity,HourlyPrecipIn,Conditions,Clouds,dailyrainin,SoftwareType,DateUTC
2013-09-08 00:05:00,75.2,69.0,29.83,NW,315,0.0,-999.0,81,-99.99,,,0.00,Acu-Link.com,2013-09-08 05:05:00,
2013-09-08 00:20:00,74.8,68.6,29.83,NW,315,0.0,-999.0,81,-99.99,,,0.00,Acu-Link.com,2013-09-08 05:20:00,
2013-09-08 00:35:00,74.5,68.6,29.83,NW,315,0.0,-999.0,82,-99.99,,,0.00,Acu-Link.com,2013-09-08 05:35:00,
2013-09-08 00:51:00,74.1,68.2,29.84,NW,315,0.0,-999.0,82,-99.99,,,0.00,Acu-Link.com,2013-09-08 05:51:00,
2013-09-08 01:06:00,73.8,68.3,29.84,NW,315,0.0,-999.0,83,-99.99,,,0.00,Acu-Link.com,2013-09-08 06:06:00,
2013-09-08 01:21:00,73.0,68.2,29.84,NW,315,0.0,-999.0,85,-99.99,,,0.00,Acu-Link.com,2013-09-08 06:21:00,
2013-09-08 01:36:00,72.5,69.1,29.84,NW,315,0.0,-999.0,89,-99.99,,,0.00,Acu-Link.com,2013-09-08 06:36:00,
2013-09-08 01:51:00,72.1,68.3,29.84,NW,315,0.0,-999.0,88,-99.99,,,0.00,Acu-Link.com,2013-09-08 06:51:00,
2013-09-08 02:07:00,72.1,68.7,29.83,NW,315,0.0,-999.0,89,-99.99,,,0.00,Acu-Link.com,2013-09-08 07:07:00,
2013-09-08 02:22:00,71.8,68.4,29.83,NW,315,0.0,-999.0,89,-99.99,,,0.00,Acu-Link.com,2013-09-08 07:22:00,
2013-09-08 02:37:00,71.6,68.5,29.83,NW,315,0.0,-999.0,90,-99.99,,,0.00,Acu-Link.com,2013-09-08 07:37:00,
2013-09-08 02:53:00,71.6,68.5,29.83,WNW,292,0.0,-999.0,90,-99.99,,,0.00,Acu-Link.com,2013-09-08 07:53:00,
2013-09-08 03:08:00,71.6,68.5,29.83,NW,315,0.0,-999.0,90,-99.99,,,0.00,Acu-Link.com,2013-09-08 08:08:00,
2013-09-08 03:23:00,71.6,68.5,29.82,NW,315,0.0,-999.0,90,-99.99,,,0.00,Acu-Link.com,2013-09-08 08:23:00,
2013-09-08 03:38:00,71.6,68.5,29.82,NW,315,0.0,-999.0,90,-99.99,,,0.00,Acu-Link.com,2013-09-08 08:38:00,
2013-09-08 03:53:00,72.9,69.1,29.82,WNW,292,0.0,-999.0,88,-99.99,,,0.00,Acu-Link.com,2013-09-08 08:53:00,
2013-09-08 04:09:00,73.9,69.1,29.82,WNW,292,2.2,-999.0,85,-99.99,,,0.00,Acu-Link.com,2013-09-08 09:09:00,
2013-09-08 04:24:00,75.0,69.5,29.82,WNW,292,0.0,-999.0,83,-99.99,,,0.00,Acu-Link.com,2013-09-08 09:24:00,
2013-09-08 04:39:00,74.1,68.9,29.82,WNW,292,0.0,-999.0,84,-99.99,,,0.00,Acu-Link.com,2013-09-08 09:39:00,
2013-09-08 04:55:00,73.8,69.0,29.83,WNW,292,0.0,-999.0,85,-99.99,,,0.00,Acu-Link.com,2013-09-08 09:55:00,
2013-09-08 05:10:00,73.4,68.6,29.82,WNW,292,0.0,-999.0,85,-99.99,,,0.00,Acu-Link.com,2013-09-08 10:10:00,
2013-09-08 05:25:00,73.8,69.0,29.81,WNW,292,2.2,-999.0,85,-99.99,,,0.00,Acu-Link.com,2013-09-08 10:25:00,
2013-09-08 05:41:00,73.4,68.6,29.81,WNW,292,0.0,-999.0,85,-99.99,,,0.00,Acu-Link.com,2013-09-08 10:41:00,
2013-09-08 05:56:00,73.0,68.2,29.81,WNW,292,0.0,-999.0,85,-99.99,,,0.00,Acu-Link.com,2013-09-08 10:56:00,
2013-09-08 06:11:00,73.0,68.6,29.82,WNW,292,0.0,-999.0,86,-99.99,,,0.00,Acu-Link.com,2013-09-08 11:11:00,
2013-09-08 06:27:00,73.0,68.6,29.82,WNW,292,0.0,-999.0,86,-99.99,,,0.00,Acu-Link.com,2013-09-08 11:27:00,
2013-09-08 06:57:00,72.0,68.2,29.82,WNW,292,0.0,-999.0,88,-99.99,,,0.00,Acu-Link.com,2013-09-08 11:57:00,
2013-09-08 07:12:00,72.0,68.2,29.82,WNW,292,0.0,-999.0,88,-99.99,,,0.00,Acu-Link.com,2013-09-08 12:12:00,
2013-09-08 07:27:00,74.3,69.1,29.80,WNW,292,1.1,-999.0,84,-99.99,,,0.00,Acu-Link.com,2013-09-08 12:27:00,
2013-09-08 07:54:00,77.0,69.6,29.81,WNW,292,0.0,-999.0,78,-99.99,,,0.00,Acu-Link.com,2013-09-08 12:54:00,
2013-09-08 08:10:00,78.3,69.7,29.81,ENE,67,0.0,-999.0,75,-99.99,,,0.00,Acu-Link.com,2013-09-08 13:10:00,
2013-09-08 08:25:00,79.5,69.7,29.81,SW,225,1.7,-999.0,72,-99.99,,,0.00,Acu-Link.com,2013-09-08 13:25:00,
2013-09-08 08:40:00,80.6,69.9,29.81,SW,225,1.7,-999.0,70,-99.99,,,0.00,Acu-Link.com,2013-09-08 13:40:00,
2013-09-08 08:55:00,82.0,69.9,29.81,SW,225,2.2,-999.0,67,-99.99,,,0.00,Acu-Link.com,2013-09-08 13:55:00,
2013-09-08 09:11:00,83.1,70.1,29.82,SW,225,0.0,-999.0,65,-99.99,,,0.00,Acu-Link.com,2013-09-08 14:11:00,
2013-09-08 09:33:00,83.7,70.2,29.82,WSW,247,1.7,-999.0,64,-99.99,,,0.00,Acu-Link.com,2013-09-08 14:33:00,
2013-09-08 09:48:00,85.6,69.6,29.82,North,0,2.2,-999.0,59,-99.99,,,0.00,Acu-Link.com,2013-09-08 14:48:00,
2013-09-08 10:03:00,86.5,70.9,29.82,NNE,22,2.7,-999.0,60,-99.99,,,0.00,Acu-Link.com,2013-09-08 15:03:00,
2013-09-08 10:21:00,-999.0,-99.9,-100.00,North,-999,-999.0,-999.0,-999,-99.99,,,-99.99,Acu-Link.com,2013-09-08 15:21:00,
2013-09-08 10:36:00,86.5,70.9,29.84,East,90,3.2,-999.0,60,-99.99,,,0.00,Acu-Link.com,2013-09-08 15:36:00,
2013-09-08 10:51:00,88.3,71.6,29.83,NNE,22,3.2,-999.0,58,-99.99,,,0.00,Acu-Link.com,2013-09-08 15:51:00,
2013-09-08 11:06:00,88.9,70.1,29.83,WNW,292,2.2,-999.0,54,-99.99,,,0.00,Acu-Link.com,2013-09-08 16:06:00,
2013-09-08 11:22:00,90.9,70.2,29.82,SW,225,1.7,-999.0,51,-99.99,,,0.00,Acu-Link.com,2013-09-08 16:22:00,
2013-09-08 11:37:00,89.8,69.8,29.82,SW,225,2.2,-999.0,52,-99.99,,,0.00,Acu-Link.com,2013-09-08 16:37:00,
2013-09-08 11:52:00,-999.0,-99.9,-100.00,North,-999,-999.0,-999.0,-999,-99.99,,,-99.99,Acu-Link.com,2013-09-08 16:52:00,
2013-09-08 12:08:00,88.9,69.5,29.82,NNE,22,0.0,-999.0,53,-99.99,,,0.00,Acu-Link.com,2013-09-08 17:08:00,
2013-09-08 12:23:00,91.4,70.7,29.82,NNE,22,1.7,-999.0,51,-99.99,,,0.00,Acu-Link.com,2013-09-08 17:23:00,
2013-09-08 12:38:00,93.4,70.1,29.81,ENE,67,1.7,-999.0,47,-99.99,,,0.00,Acu-Link.com,2013-09-08 17:38:00,
2013-09-08 12:54:00,94.5,69.2,29.81,ESE,112,1.7,-999.0,44,-99.99,,,0.00,Acu-Link.com,2013-09-08 17:54:00,
2013-09-08 13:09:00,94.1,70.1,29.81,ESE,112,2.7,-999.0,46,-99.99,,,0.00,Acu-Link.com,2013-09-08 18:09:00,
2013-09-08 13:24:00,94.6,68.6,29.80,South,180,2.7,-999.0,43,-99.99,,,0.00,Acu-Link.com,2013-09-08 18:24:00,
2013-09-08 13:39:00,93.6,69.0,29.80,South,180,1.1,-999.0,45,-99.99,,,0.00,Acu-Link.com,2013-09-08 18:39:00,
2013-09-08 13:55:00,90.1,70.1,29.80,South,180,1.7,-999.0,52,-99.99,,,0.00,Acu-Link.com,2013-09-08 18:55:00,
2013-09-08 14:10:00,87.6,70.5,29.80,South,180,1.1,-999.0,57,-99.99,,,0.00,Acu-Link.com,2013-09-08 19:10:00,
2013-09-08 14:25:00,86.7,70.6,29.79,WSW,247,1.7,-999.0,59,-99.99,,,0.00,Acu-Link.com,2013-09-08 19:25:00,
2013-09-08 14:40:00,86.4,69.8,29.79,South,180,5.8,-999.0,58,-99.99,,,0.00,Acu-Link.com,2013-09-08 19:40:00,
2013-09-08 14:55:00,86.4,69.3,29.78,SSW,202,2.2,-999.0,57,-99.99,,,0.00,Acu-Link.com,2013-09-08 19:55:00,
2013-09-08 15:10:00,86.4,69.3,29.78,West,270,0.0,-999.0,57,-99.99,,,0.00,Acu-Link.com,2013-09-08 20:10:00,
2013-09-08 15:25:00,86.4,66.1,29.77,NW,315,0.0,-999.0,51,-99.99,,,0.00,Acu-Link.com,2013-09-08 20:25:00,
2013-09-08 15:41:00,86.7,66.4,29.77,WNW,292,2.2,-999.0,51,-99.99,,,0.00,Acu-Link.com,2013-09-08 20:41:00,
2013-09-08 15:56:00,86.7,66.9,29.76,WNW,292,3.2,-999.0,52,-99.99,,,0.00,Acu-Link.com,2013-09-08 20:56:00,
2013-09-08 16:11:00,86.7,66.9,29.76,WNW,292,2.7,-999.0,52,-99.99,,,0.00,Acu-Link.com,2013-09-08 21:11:00,
2013-09-08 16:26:00,86.0,64.6,29.75,South,180,1.7,-999.0,49,-99.99,,,0.00,Acu-Link.com,2013-09-08 21:26:00,
2013-09-08 16:41:00,85.6,66.5,29.75,South,180,2.7,-999.0,53,-99.99,,,0.00,Acu-Link.com,2013-09-08 21:41:00,
2013-09-08 16:57:00,87.6,66.6,29.75,South,180,0.0,-999.0,50,-99.99,,,0.00,Acu-Link.com,2013-09-08 21:57:00,
2013-09-08 17:12:00,89.2,66.9,29.74,SSE,157,2.7,-999.0,48,-99.99,,,0.00,Acu-Link.com,2013-09-08 22:12:00,
2013-09-08 17:28:00,90.7,67.0,29.74,SSE,157,2.7,-999.0,46,-99.99,,,0.00,Acu-Link.com,2013-09-08 22:28:00,
2013-09-08 17:43:00,92.8,64.9,29.75,SE,135,2.7,-999.0,40,-99.99,,,0.00,Acu-Link.com,2013-09-08 22:43:00,
2013-09-08 17:58:00,93.6,65.6,29.74,SE,135,1.7,-999.0,40,-99.99,,,0.00,Acu-Link.com,2013-09-08 22:58:00,
2013-09-08 18:13:00,92.8,64.9,29.74,ESE,112,0.0,-999.0,40,-99.99,,,0.00,Acu-Link.com,2013-09-08 23:13:00,
2013-09-08 18:29:00,93.7,65.0,29.74,ESE,112,1.7,-999.0,39,-99.99,,,0.00,Acu-Link.com,2013-09-08 23:29:00,
2013-09-08 18:44:00,91.6,66.6,29.74,ESE,112,0.0,-999.0,44,-99.99,,,0.00,Acu-Link.com,2013-09-08 23:44:00,
2013-09-08 18:59:00,89.4,68.3,29.75,ESE,112,0.0,-999.0,50,-99.99,,,0.00,Acu-Link.com,2013-09-08 23:59:00,
2013-09-08 19:14:00,86.9,69.8,29.74,ESE,112,0.0,-999.0,57,-99.99,,,0.00,Acu-Link.com,2013-09-09 00:14:00,
2013-09-08 19:30:00,88.2,71.0,29.74,ESE,112,0.0,-999.0,57,-99.99,,,0.00,Acu-Link.com,2013-09-09 00:30:00,
2013-09-08 19:45:00,85.5,70.0,29.74,ESE,112,0.0,-999.0,60,-99.99,,,0.00,Acu-Link.com,2013-09-09 00:45:00,
2013-09-08 20:00:00,82.6,70.5,29.74,ESE,112,2.2,-999.0,67,-99.99,,,0.00,Acu-Link.com,2013-09-09 01:00:00,
2013-09-08 20:16:00,80.4,67.5,29.74,ESE,112,0.0,-999.0,65,-99.99,,,0.00,Acu-Link.com,2013-09-09 01:16:00,
2013-09-08 20:31:00,78.8,67.7,29.75,ESE,112,0.0,-999.0,69,-99.99,,,0.00,Acu-Link.com,2013-09-09 01:31:00,
2013-09-08 20:46:00,78.1,67.1,29.75,ESE,112,0.0,-999.0,69,-99.99,,,0.00,Acu-Link.com,2013-09-09 01:46:00,
2013-09-08 21:01:00,77.5,66.9,29.75,ESE,112,1.7,-999.0,70,-99.99,,,0.00,Acu-Link.com,2013-09-09 02:01:00,
2013-09-08 21:17:00,78.3,66.4,29.75,ESE,112,1.7,-999.0,67,-99.99,,,0.00,Acu-Link.com,2013-09-09 02:17:00,
2013-09-08 21:32:00,78.1,66.7,29.75,ESE,112,1.7,-999.0,68,-99.99,,,0.00,Acu-Link.com,2013-09-09 02:32:00,
2013-09-08 21:47:00,78.4,67.4,29.75,ESE,112,2.2,-999.0,69,-99.99,,,0.00,Acu-Link.com,2013-09-09 02:47:00,
2013-09-08 22:02:00,77.2,67.5,29.75,SE,135,0.0,-999.0,72,-99.99,,,0.00,Acu-Link.com,2013-09-09 03:02:00,
2013-09-08 22:18:00,78.4,69.0,29.75,South,180,2.7,-999.0,73,-99.99,,,0.00,Acu-Link.com,2013-09-09 03:18:00,
2013-09-08 22:33:00,78.8,69.0,29.76,SSE,157,2.2,-999.0,72,-99.99,,,0.00,Acu-Link.com,2013-09-09 03:33:00,
2013-09-08 22:48:00,79.0,69.2,29.76,SSW,202,2.2,-999.0,72,-99.99,,,0.00,Acu-Link.com,2013-09-09 03:48:00,
2013-09-08 23:03:00,77.7,68.3,29.76,South,180,2.7,-999.0,73,-99.99,,,0.00,Acu-Link.com,2013-09-09 04:03:00,
2013-09-08 23:19:00,78.3,68.9,29.76,South,180,2.7,-999.0,73,-99.99,,,0.00,Acu-Link.com,2013-09-09 04:19:00,
2013-09-08 23:34:00,78.6,68.4,29.76,SSW,202,4.2,-999.0,71,-99.99,,,0.00,Acu-Link.com,2013-09-09 04:34:00,
2013-09-08 23:49:00,78.3,68.1,29.76,South,180,2.7,-999.0,71,-99.99,,,0.00,Acu-Link.com,2013-09-09 04:49:00,